Chinese Camp, CA

5:11 PM PDT on September 19, 2014 (GMT -0700)
Stockton Metro | Change Station
CLOSE
Current Station
Airport
Location: Stockton,
Elevation: 26 ft
Nearby Weather Stations

Elev 26 ft 37.89 °N, 121.23 °W | Updated 16 minutes ago

Clear
Clear
87 °F
Feels Like 86 °F
N
8
Wind Variable Wind from NW

Today
High -- | Low -- °F
--% Chance of Precip.
Yesterday
High -- | Low -- °F
Precip. -- in
6:47 AM 7:03 PM
Waning Crescent, 16% visible
Pressure 29.79 in
Visibility 10.0 miles
Clouds Clear
Heat Index 86 °F
Dew Point 58 °F
Humidity 37%
Rainfall 0.00 in
Snow Depth 1 in , 0 in , 0 in
UV 2 out of 12
Pollen 5.90 out of 12
Air Quality Not available.
Flu Activity Not available.
METAR KSCK 192355Z 31007KT 10SM CLR 31/14 A2979 RMK AO2 SLP087 T03060144 10311 20250 56014

More Conditions Fewer Conditions

Pressure 29.79 in
Visibility 10.0 miles
Clouds Clear
Heat Index 86 °F
Dew Point 58 °F
Humidity 37%
Rainfall 0.00 in
Snow Depth 1 in , 0 in , 0 in
UV 2 out of 12
Pollen 5.90 out of 12
Air Quality Not available.
Flu Activity Not available.
METAR KSCK 192355Z 31007KT 10SM CLR 31/14 A2979 RMK AO2 SLP087 T03060144 10311 20250 56014

More Conditions Fewer Conditions

10-Day Weather Forecast

Almanac

Astronomy

Sep. 19, 2014 Rise Set
Actual Time 6:47 AM PDT 7:03 PM PDT
Civil Twilight 6:20 AM PDT 7:29 PM PDT
Nautical Twilight 5:50 AM PDT 8:00 PM PDT
Astronomical Twilight 5:18 AM PDT 8:31 PM PDT
Moon 2:40 AM PDT (9/19) 4:32 PM PDT (9/19)
Length of Visible Light 13h 08m
Length of Day
12h 16m
Tomorrow will be 2m 24s shorter.
Waning Crescent, 16% of the Moon is Illuminated
Today
Waning Crescent
Sep 24
New
Oct 1
First Quarter
Oct 8
Full
Oct 15
Last Quarter

Today's Extremes

State Highs State Lows

Community

WunderPhotos

Upload Photos

1,754,734 photos uploaded!

WunderBlogs® & News

Nearby

Air Quality

  Air Quality AQ Index Pollutant
Yesterday Good
OZONE
Friday Moderate
OZONE
Saturday Moderate
OZONE
Sunday Moderate
OZONE
Monday Moderate
OZONE
Tuesday Moderate
OZONE
Wednesday Moderate
OZONE

Snow Depth

Station Depth Elevation
Adin Mountain 1 in 6200 ft
Spratt Creek 0 in 6200 ft
Tahoe City Cross 0 in 6750 ft
Rubicon #2 0 in 7500 ft
Leavitt Meadows 0 in 7200 ft

Earthquake Activity

City Distance Mag. Time & Date
Livermore, California 71 miles 2.6 3:37 AM PDT
2014-09-19
Corcoran, California 130 miles 3.0 3:59 PM PDT
2014-09-18
Minimum magnitude displayed is 2.5.

Coastal Water Temperatures

Place Temperature
No Stations Reporting

Nearby Weather Stations